createdAt,value
2022-08-30T00:00:39.901Z,100.00
2022-08-30T00:03:14.718Z,100.00
2022-08-30T00:05:44.156Z,100.00
2022-08-30T00:08:12.815Z,100.00
2022-08-30T00:10:43.573Z,100.00
2022-08-30T00:13:13.510Z,100.00
2022-08-30T00:15:42.843Z,100.00
2022-08-30T00:18:11.201Z,100.00
2022-08-30T00:20:39.480Z,100.00
2022-08-30T00:23:08.047Z,100.00
2022-08-30T00:25:36.285Z,100.00
2022-08-30T00:28:04.662Z,100.00
2022-08-30T00:30:33.082Z,100.00
2022-08-30T00:33:01.551Z,100.00
2022-08-30T00:35:30.071Z,100.00
2022-08-30T00:37:58.551Z,100.00
2022-08-30T00:40:28.690Z,100.00
2022-08-30T00:43:00.003Z,100.00
2022-08-30T00:45:36.421Z,100.00
2022-08-30T00:48:08.364Z,100.00
2022-08-30T00:50:42.377Z,100.00
2022-08-30T00:53:20.915Z,100.00
2022-08-30T00:55:50.589Z,100.00
2022-08-30T00:58:23.631Z,100.00
2022-08-30T01:00:55.546Z,100.00
2022-08-30T01:03:24.690Z,100.00
2022-08-30T01:05:53.649Z,100.00
2022-08-30T01:08:24.975Z,100.00
2022-08-30T01:10:54.994Z,100.00
2022-08-30T01:13:25.534Z,100.00
2022-08-30T01:15:55.856Z,100.00
2022-08-30T01:18:25.792Z,100.00
2022-08-30T01:21:20.454Z,100.00
2022-08-30T01:23:51.198Z,100.00
2022-08-30T01:26:22.293Z,100.00
2022-08-30T01:28:57.061Z,100.00
2022-08-30T01:31:27.166Z,100.00
2022-08-30T01:33:55.532Z,100.00
2022-08-30T01:36:25.254Z,100.00
2022-08-30T01:38:57.373Z,100.00
2022-08-30T01:41:32.274Z,100.00
2022-08-30T01:44:01.784Z,100.00
2022-08-30T01:46:36.178Z,100.00
2022-08-30T01:49:08.679Z,100.00
2022-08-30T01:51:38.309Z,100.00
2022-08-30T01:54:07.174Z,100.00
2022-08-30T01:56:35.670Z,100.00
2022-08-30T01:59:04.761Z,100.00
2022-08-30T02:01:37.248Z,100.00
2022-08-30T02:04:07.434Z,100.00
2022-08-30T02:06:38.450Z,100.00
2022-08-30T02:09:07.092Z,100.00
2022-08-30T02:11:35.371Z,100.00
2022-08-30T02:14:04.271Z,100.00
2022-08-30T02:16:32.964Z,100.00
2022-08-30T02:19:01.358Z,100.00
2022-08-30T02:21:30.007Z,100.00
2022-08-30T02:23:59.570Z,100.00
2022-08-30T02:26:27.934Z,100.00
2022-08-30T02:28:56.246Z,100.00
2022-08-30T02:31:27.359Z,100.00
2022-08-30T02:33:55.601Z,100.00
2022-08-30T02:36:23.954Z,100.00
2022-08-30T02:38:52.857Z,100.00
2022-08-30T02:41:23.726Z,100.00
2022-08-30T02:43:52.525Z,100.00
2022-08-30T02:46:20.851Z,100.00
2022-08-30T02:48:49.211Z,100.00
2022-08-30T02:51:17.803Z,100.00
2022-08-30T02:53:46.183Z,100.00
2022-08-30T02:56:15.550Z,100.00
2022-08-30T02:58:45.052Z,100.00
2022-08-30T03:01:15.810Z,100.00
2022-08-30T03:03:47.188Z,100.00
2022-08-30T03:06:15.746Z,100.00
2022-08-30T03:08:44.234Z,100.00
2022-08-30T03:11:13.890Z,100.00
2022-08-30T03:13:42.225Z,100.00
2022-08-30T03:16:10.688Z,100.00
2022-08-30T03:18:39.479Z,100.00
2022-08-30T03:21:16.353Z,100.00
2022-08-30T03:23:45.519Z,100.00
2022-08-30T03:26:15.087Z,100.00
2022-08-30T03:28:43.967Z,100.00
2022-08-30T03:31:13.321Z,100.00
2022-08-30T03:33:42.102Z,100.00
2022-08-30T03:36:11.206Z,100.00
2022-08-30T03:38:40.170Z,100.00
2022-08-30T03:41:09.138Z,100.00
2022-08-30T03:43:37.822Z,100.00
2022-08-30T03:46:06.334Z,100.00
2022-08-30T03:48:34.607Z,100.00
2022-08-30T03:51:03.435Z,100.00
2022-08-30T03:53:34.674Z,100.00
2022-08-30T03:56:04.087Z,100.00
2022-08-30T03:58:33.066Z,100.00
2022-08-30T04:01:01.398Z,100.00
2022-08-30T04:03:29.694Z,100.00
2022-08-30T04:05:58.194Z,100.00
2022-08-30T04:08:27.427Z,100.00
2022-08-30T04:10:56.287Z,100.00
2022-08-30T04:13:25.372Z,100.00
2022-08-30T04:15:53.765Z,100.00
2022-08-30T04:18:22.866Z,100.00
2022-08-30T04:20:52.272Z,100.00
2022-08-30T04:23:20.991Z,100.00
2022-08-30T04:25:49.306Z,100.00
2022-08-30T04:28:17.560Z,100.00
2022-08-30T04:30:45.956Z,100.00
2022-08-30T04:33:16.119Z,100.00
2022-08-30T04:35:46.899Z,100.00
2022-08-30T04:38:16.987Z,100.00
2022-08-30T04:40:48.686Z,100.00
2022-08-30T04:43:17.231Z,100.00
2022-08-30T04:45:46.976Z,100.00
2022-08-30T04:48:16.039Z,100.00
2022-08-30T04:50:44.606Z,100.00
2022-08-30T04:53:13.917Z,100.00
2022-08-30T04:55:43.585Z,100.00
2022-08-30T04:58:12.481Z,100.00
2022-08-30T05:00:43.036Z,100.00
2022-08-30T05:03:12.789Z,100.00
2022-08-30T05:05:41.926Z,100.00
2022-08-30T05:08:17.154Z,100.00
2022-08-30T05:10:49.576Z,100.00
2022-08-30T05:13:26.265Z,100.00
2022-08-30T05:16:06.238Z,100.00
2022-08-30T05:18:35.994Z,100.00
2022-08-30T05:21:13.531Z,100.00
2022-08-30T05:23:43.573Z,100.00
2022-08-30T05:26:19.083Z,100.00
2022-08-30T05:28:47.785Z,100.00
2022-08-30T05:31:22.227Z,100.00
2022-08-30T05:33:52.897Z,100.00
2022-08-30T05:36:23.949Z,100.00
2022-08-30T05:38:52.713Z,100.00
2022-08-30T05:41:26.321Z,100.00
2022-08-30T05:43:58.106Z,100.00
2022-08-30T05:46:29.655Z,100.00
2022-08-30T05:48:58.146Z,100.00
2022-08-30T05:51:28.895Z,100.00
2022-08-30T05:53:59.414Z,100.00
2022-08-30T05:56:32.465Z,100.00
2022-08-30T05:59:01.414Z,100.00
2022-08-30T06:01:57.219Z,100.00
2022-08-30T06:04:26.532Z,100.00
2022-08-30T06:06:54.888Z,100.00
2022-08-30T06:09:23.205Z,100.00
2022-08-30T06:11:51.431Z,100.00
2022-08-30T06:14:19.886Z,100.00
2022-08-30T06:16:48.979Z,100.00
2022-08-30T06:19:18.571Z,100.00
2022-08-30T06:21:51.386Z,100.00
2022-08-30T06:24:27.811Z,100.00
2022-08-30T06:27:04.514Z,100.00
2022-08-30T06:29:32.768Z,100.00
2022-08-30T06:32:01.083Z,100.00
2022-08-30T06:34:30.080Z,100.00
2022-08-30T06:36:58.280Z,100.00
2022-08-30T06:39:27.626Z,100.00
2022-08-30T06:41:55.952Z,100.00
2022-08-30T06:44:28.326Z,100.00
2022-08-30T06:46:59.162Z,100.00
2022-08-30T06:49:27.452Z,100.00
2022-08-30T06:51:55.736Z,100.00
2022-08-30T06:54:24.050Z,100.00
2022-08-30T06:56:58.705Z,99.98
2022-08-30T06:59:28.118Z,98.93
2022-08-30T07:01:57.887Z,98.87
2022-08-30T07:04:26.914Z,96.95
2022-08-30T07:06:55.196Z,93.86
2022-08-30T07:09:25.042Z,94.21
2022-08-30T07:11:54.062Z,93.33
2022-08-30T07:14:23.125Z,93.26
2022-08-30T07:16:51.997Z,91.83
2022-08-30T07:19:22.811Z,90.36
2022-08-30T07:21:51.094Z,90.15
2022-08-30T07:24:20.754Z,89.74
2022-08-30T07:26:52.308Z,86.86
2022-08-30T07:29:21.533Z,85.10
2022-08-30T07:31:50.339Z,85.13
2022-08-30T07:34:20.603Z,85.18
2022-08-30T07:36:50.770Z,86.26
2022-08-30T07:39:19.604Z,85.17
2022-08-30T07:41:49.075Z,84.68
2022-08-30T07:44:17.787Z,83.01
2022-08-30T07:46:46.364Z,83.17
2022-08-30T07:49:14.701Z,84.00
2022-08-30T07:51:43.086Z,83.87
2022-08-30T07:54:11.534Z,83.20
2022-08-30T07:56:39.981Z,80.66
2022-08-30T07:59:08.270Z,78.86
2022-08-30T08:01:36.654Z,79.70
2022-08-30T08:04:04.938Z,79.99
2022-08-30T08:06:34.628Z,78.96
2022-08-30T08:09:04.237Z,77.49
2022-08-30T08:11:34.565Z,76.00
2022-08-30T08:14:04.994Z,76.53
2022-08-30T08:16:35.677Z,75.64
2022-08-30T08:19:09.304Z,75.23
2022-08-30T08:21:38.391Z,74.31
2022-08-30T08:24:08.039Z,74.01
2022-08-30T08:26:38.179Z,72.57
2022-08-30T08:29:10.190Z,73.38
2022-08-30T08:31:38.699Z,73.77
2022-08-30T08:34:07.853Z,73.64
2022-08-30T08:36:36.641Z,74.31
2022-08-30T08:39:07.152Z,72.96
2022-08-30T08:41:56.698Z,72.23
2022-08-30T08:44:34.477Z,73.68
2022-08-30T08:47:13.859Z,74.02
2022-08-30T08:49:47.640Z,73.85
2022-08-30T08:52:41.811Z,73.28
2022-08-30T08:55:13.411Z,67.32
2022-08-30T08:57:42.525Z,69.49
2022-08-30T09:00:13.973Z,70.62
2022-08-30T09:02:55.870Z,70.20
2022-08-30T09:05:29.504Z,68.55
2022-08-30T09:08:07.654Z,68.33
2022-08-30T09:10:50.521Z,68.54
2022-08-30T09:13:22.793Z,65.19
2022-08-30T09:15:56.936Z,65.30
2022-08-30T09:18:54.457Z,66.27
2022-08-30T09:21:27.847Z,62.88
2022-08-30T09:24:01.571Z,60.34
2022-08-30T09:26:37.527Z,63.48
2022-08-30T09:29:06.069Z,59.83
2022-08-30T09:31:49.119Z,61.70
2022-08-30T09:34:24.137Z,60.98
2022-08-30T09:36:56.306Z,61.02
2022-08-30T09:39:33.781Z,57.67
2022-08-30T09:42:23.986Z,59.83
2022-08-30T09:44:53.813Z,58.89
2022-08-30T09:47:28.967Z,60.44
2022-08-30T09:50:21.268Z,60.66
2022-08-30T09:53:23.530Z,59.14
2022-08-30T09:56:01.680Z,60.52
2022-08-30T09:58:35.774Z,60.89
2022-08-30T10:01:03.752Z,59.21
2022-08-30T10:03:52.992Z,56.19
2022-08-30T10:06:34.407Z,57.25
2022-08-30T10:09:24.393Z,57.91
2022-08-30T10:12:20.121Z,59.90
2022-08-30T10:15:11.024Z,59.41
2022-08-30T10:17:51.821Z,58.98
2022-08-30T10:20:33.990Z,59.31
2022-08-30T10:23:09.466Z,57.78
2022-08-30T10:25:44.391Z,58.56
2022-08-30T10:28:46.862Z,59.46
2022-08-30T10:31:58.459Z,57.70
2022-08-30T10:34:46.057Z,55.49
2022-08-30T10:37:19.761Z,55.92
2022-08-30T10:39:52.115Z,54.93
2022-08-30T10:42:28.808Z,56.23
2022-08-30T10:45:04.808Z,55.51
2022-08-30T10:47:44.817Z,56.64
2022-08-30T10:50:25.218Z,56.36
2022-08-30T10:53:00.137Z,57.85
2022-08-30T10:55:49.857Z,58.65
2022-08-30T10:58:19.569Z,57.25
2022-08-30T11:01:18.109Z,55.34
2022-08-30T11:04:00.996Z,55.34
2022-08-30T11:06:40.367Z,55.04
2022-08-30T11:09:26.937Z,55.22
2022-08-30T11:12:24.606Z,53.06
2022-08-30T11:14:55.415Z,52.67
2022-08-30T11:17:58.083Z,54.30
2022-08-30T11:20:40.128Z,53.57
2022-08-30T11:23:33.272Z,51.45
2022-08-30T11:26:08.335Z,52.80
2022-08-30T11:28:40.153Z,51.99
2022-08-30T11:31:38.554Z,51.32
2022-08-30T11:34:09.805Z,52.08
2022-08-30T11:36:46.077Z,50.66
2022-08-30T11:40:05.863Z,48.79
2022-08-30T11:42:45.797Z,51.08
2022-08-30T11:45:25.435Z,53.10
2022-08-30T11:48:53.728Z,50.14
2022-08-30T11:52:26.549Z,49.23
2022-08-30T11:55:12.797Z,51.80
2022-08-30T11:58:11.595Z,49.21
2022-08-30T12:00:51.504Z,48.19
2022-08-30T12:03:35.226Z,49.81
2022-08-30T12:06:08.960Z,50.66
2022-08-30T12:08:48.244Z,51.62
2022-08-30T12:11:16.194Z,52.82
2022-08-30T12:13:45.647Z,53.78
2022-08-30T12:16:20.038Z,54.92
2022-08-30T12:18:57.220Z,55.52
2022-08-30T12:21:31.337Z,55.25
2022-08-30T12:24:25.035Z,56.14
2022-08-30T12:26:54.177Z,57.24
2022-08-30T12:29:24.503Z,58.91
2022-08-30T12:32:09.315Z,59.22
2022-08-30T12:34:52.186Z,59.23
2022-08-30T12:37:25.117Z,59.18
2022-08-30T12:40:16.060Z,59.80
2022-08-30T12:42:58.232Z,58.68
2022-08-30T12:45:32.323Z,57.09
2022-08-30T12:48:05.456Z,56.61
2022-08-30T12:50:44.512Z,57.02
2022-08-30T12:53:22.704Z,57.09
2022-08-30T12:56:50.650Z,56.53
2022-08-30T13:00:42.879Z,53.54
2022-08-30T13:04:03.407Z,53.26
2022-08-30T13:07:36.954Z,50.23
2022-08-30T13:10:15.170Z,50.31
2022-08-30T13:13:05.844Z,51.76
2022-08-30T13:15:42.605Z,54.07
2022-08-30T13:18:21.617Z,51.72
2022-08-30T13:21:30.615Z,52.00
2022-08-30T13:24:06.373Z,53.03
2022-08-30T13:26:37.802Z,53.77
2022-08-30T13:29:19.408Z,50.30
2022-08-30T13:31:49.431Z,51.85
2022-08-30T13:34:22.388Z,50.67
2022-08-30T13:36:57.195Z,49.92
2022-08-30T13:39:26.095Z,50.79
2022-08-30T13:41:55.305Z,50.99
2022-08-30T13:44:43.165Z,50.21
2022-08-30T13:50:01.973Z,51.40
2022-08-30T13:52:30.070Z,48.39
2022-08-30T13:54:58.236Z,48.47
2022-08-30T14:00:21.769Z,50.31
2022-08-30T14:02:55.284Z,50.89
2022-08-30T14:11:13.053Z,53.49
2022-08-30T14:16:32.531Z,55.11
2022-08-30T14:19:01.761Z,54.71
2022-08-30T14:21:30.364Z,54.87
2022-08-30T14:23:59.734Z,52.91
2022-08-30T14:26:37.388Z,50.28
2022-08-30T14:29:09.478Z,53.82
2022-08-30T14:31:39.817Z,55.88
2022-08-30T14:34:10.947Z,56.26
2022-08-30T14:36:42.679Z,55.74
2022-08-30T14:39:15.253Z,56.10
2022-08-30T14:41:51.158Z,56.45
2022-08-30T14:44:21.117Z,56.71
2022-08-30T14:46:51.134Z,57.72
2022-08-30T14:49:20.851Z,59.34
2022-08-30T14:51:49.583Z,58.91
2022-08-30T14:54:21.506Z,60.10
2022-08-30T14:56:49.599Z,60.22
2022-08-30T14:59:18.864Z,58.91
2022-08-30T15:01:46.889Z,59.17
2022-08-30T15:04:16.852Z,58.02
2022-08-30T15:06:48.735Z,57.61
2022-08-30T15:09:23.210Z,57.83
2022-08-30T15:11:56.617Z,57.98
2022-08-30T15:14:29.786Z,57.34
2022-08-30T15:16:59.482Z,58.24
2022-08-30T15:19:27.615Z,58.50
2022-08-30T15:22:07.059Z,58.73
2022-08-30T15:24:36.388Z,59.56
2022-08-30T15:27:04.929Z,59.80
2022-08-30T15:29:34.528Z,59.79
2022-08-30T15:32:04.167Z,60.00
2022-08-30T15:34:33.876Z,60.75
2022-08-30T15:37:02.237Z,61.14
2022-08-30T15:39:32.225Z,61.33
2022-08-30T15:42:01.499Z,61.18
2022-08-30T15:44:31.861Z,61.94
2022-08-30T15:47:00.219Z,62.27
2022-08-30T15:49:28.420Z,61.75
2022-08-30T15:52:01.790Z,61.92
2022-08-30T15:54:30.489Z,61.97
2022-08-30T15:57:01.607Z,61.81
2022-08-30T15:59:32.446Z,61.79
2022-08-30T16:02:00.889Z,61.72
2022-08-30T16:04:29.964Z,62.31
2022-08-30T16:06:58.398Z,62.73
2022-08-30T16:09:30.100Z,63.33
2022-08-30T16:12:04.666Z,63.68
2022-08-30T16:14:34.861Z,63.79
2022-08-30T16:17:03.382Z,64.48
2022-08-30T16:19:33.460Z,64.85
2022-08-30T16:22:01.931Z,65.23
2022-08-30T16:24:30.487Z,65.25
2022-08-30T16:26:58.825Z,65.45
2022-08-30T16:29:27.097Z,65.87
2022-08-30T16:31:57.954Z,65.95
2022-08-30T16:34:26.966Z,66.48
2022-08-30T16:36:55.337Z,66.90
2022-08-30T16:39:23.677Z,67.14
2022-08-30T16:41:52.638Z,68.07
2022-08-30T16:44:21.109Z,68.85
2022-08-30T16:46:52.997Z,69.55
2022-08-30T16:49:24.930Z,69.81
2022-08-30T16:52:21.255Z,70.13
2022-08-30T16:54:52.017Z,70.79
2022-08-30T16:57:20.816Z,71.04
2022-08-30T16:59:50.859Z,71.27
2022-08-30T17:02:21.133Z,71.88
2022-08-30T17:04:52.949Z,72.35
2022-08-30T17:07:22.590Z,72.89
2022-08-30T17:09:51.251Z,73.05
2022-08-30T17:12:19.858Z,73.44
2022-08-30T17:14:48.275Z,73.72
2022-08-30T17:17:17.430Z,74.08
2022-08-30T17:19:50.678Z,74.34
2022-08-30T17:22:18.974Z,74.73
2022-08-30T17:24:49.806Z,75.18
2022-08-30T17:27:19.201Z,75.81
2022-08-30T17:29:47.514Z,76.04
2022-08-30T17:32:16.255Z,76.46
2022-08-30T17:34:45.933Z,76.87
2022-08-30T17:37:15.989Z,77.30
2022-08-30T17:39:44.381Z,77.91
2022-08-30T17:42:12.838Z,78.48
2022-08-30T17:44:42.229Z,79.18
2022-08-30T17:47:12.053Z,79.68
2022-08-30T17:49:40.368Z,80.01
2022-08-30T17:52:08.708Z,80.42
2022-08-30T17:54:40.113Z,80.71
2022-08-30T17:57:11.612Z,81.24
2022-08-30T17:59:40.923Z,81.72
2022-08-30T18:02:11.243Z,81.98
2022-08-30T18:04:42.293Z,82.56
2022-08-30T18:07:13.479Z,82.89
2022-08-30T18:09:43.266Z,83.19
2022-08-30T18:12:12.481Z,83.95
2022-08-30T18:14:42.576Z,84.46
2022-08-30T18:17:10.931Z,84.77
2022-08-30T18:19:46.403Z,85.00
2022-08-30T18:22:17.653Z,85.48
2022-08-30T18:24:47.930Z,85.54
2022-08-30T18:27:16.736Z,85.87
2022-08-30T18:29:45.350Z,86.00
2022-08-30T18:32:13.796Z,86.56
2022-08-30T18:34:43.020Z,86.85
2022-08-30T18:37:12.357Z,87.12
2022-08-30T18:39:42.021Z,87.29
2022-08-30T18:42:10.531Z,87.57
2022-08-30T18:44:40.285Z,87.98
2022-08-30T18:47:12.271Z,88.37
2022-08-30T18:49:40.509Z,88.16
2022-08-30T18:52:10.962Z,88.73
2022-08-30T18:54:42.158Z,88.90
2022-08-30T18:57:12.001Z,89.12
2022-08-30T18:59:42.030Z,89.24
2022-08-30T19:02:14.124Z,89.56
2022-08-30T19:04:45.204Z,89.64
2022-08-30T19:07:18.597Z,90.01
2022-08-30T19:09:47.105Z,90.06
2022-08-30T19:12:16.069Z,90.33
2022-08-30T19:14:44.652Z,90.55
2022-08-30T19:17:13.545Z,91.00
2022-08-30T19:19:46.453Z,91.09
2022-08-30T19:22:24.507Z,91.46
2022-08-30T19:24:55.761Z,91.43
2022-08-30T19:27:38.248Z,91.70
2022-08-30T19:30:13.552Z,91.69
2022-08-30T19:32:44.602Z,91.88
2022-08-30T19:35:17.894Z,92.32
2022-08-30T19:37:47.912Z,92.13
2022-08-30T19:40:18.528Z,92.09
2022-08-30T19:42:48.066Z,92.35
2022-08-30T19:45:21.482Z,92.30
2022-08-30T19:47:52.076Z,92.65
2022-08-30T19:50:22.182Z,92.42
2022-08-30T19:52:54.648Z,92.70
2022-08-30T19:55:28.431Z,92.89
2022-08-30T19:57:59.113Z,93.03
2022-08-30T20:00:31.217Z,93.06
2022-08-30T20:03:01.474Z,93.25
2022-08-30T20:05:31.942Z,93.58
2022-08-30T20:08:00.585Z,93.75
2022-08-30T20:10:29.226Z,93.67
2022-08-30T20:12:59.326Z,93.75
2022-08-30T20:15:27.837Z,93.53
2022-08-30T20:18:05.594Z,93.53
2022-08-30T20:20:49.756Z,93.47
2022-08-30T20:23:22.721Z,93.81
2022-08-30T20:25:53.074Z,94.04
2022-08-30T20:28:22.083Z,94.03
2022-08-30T20:30:52.137Z,94.32
2022-08-30T20:33:21.946Z,94.36
2022-08-30T20:35:51.800Z,94.48
2022-08-30T20:38:21.576Z,94.54
2022-08-30T20:40:56.779Z,94.79
2022-08-30T20:43:28.776Z,95.17
2022-08-30T20:45:57.162Z,95.29
2022-08-30T20:48:28.902Z,95.41
2022-08-30T20:50:57.159Z,95.64
2022-08-30T20:53:25.360Z,96.25
2022-08-30T20:55:53.615Z,96.54
2022-08-30T20:58:21.878Z,96.79
2022-08-30T21:00:54.654Z,97.02
2022-08-30T21:03:26.516Z,96.92
2022-08-30T21:05:56.986Z,96.92
2022-08-30T21:08:25.759Z,96.84
2022-08-30T21:10:55.427Z,96.56
2022-08-30T21:13:23.817Z,96.69
2022-08-30T21:16:00.168Z,96.77
2022-08-30T21:18:33.209Z,96.70
2022-08-30T21:21:21.467Z,96.75
2022-08-30T21:23:50.696Z,97.24
2022-08-30T21:26:20.383Z,97.35
2022-08-30T21:28:50.984Z,97.50
2022-08-30T21:31:22.662Z,97.79
2022-08-30T21:33:52.739Z,97.72
2022-08-30T21:36:41.134Z,98.02
2022-08-30T21:39:09.907Z,97.89
2022-08-30T21:41:39.533Z,98.10
2022-08-30T21:44:13.441Z,98.27
2022-08-30T21:46:42.695Z,98.32
2022-08-30T21:49:13.300Z,98.23
2022-08-30T21:51:44.506Z,98.46
2022-08-30T21:54:15.048Z,98.62
2022-08-30T21:56:46.112Z,98.97
2022-08-30T21:59:15.450Z,99.03
2022-08-30T22:01:43.951Z,98.91
2022-08-30T22:04:13.432Z,98.93
2022-08-30T22:06:48.108Z,99.17
2022-08-30T22:09:35.106Z,98.96
2022-08-30T22:12:06.888Z,98.99
2022-08-30T22:14:36.826Z,99.34
2022-08-30T22:17:05.398Z,99.11
2022-08-30T22:19:34.062Z,99.44
2022-08-30T22:22:02.358Z,99.46
2022-08-30T22:24:32.585Z,99.54
2022-08-30T22:27:03.430Z,99.58
2022-08-30T22:29:32.264Z,99.62
2022-08-30T22:32:00.936Z,99.74
2022-08-30T22:34:29.587Z,99.76
2022-08-30T22:36:57.835Z,99.83
2022-08-30T22:39:27.118Z,99.51
2022-08-30T22:41:55.410Z,99.70
2022-08-30T22:44:23.717Z,99.61
2022-08-30T22:46:51.914Z,99.50
2022-08-30T22:49:20.638Z,99.34
2022-08-30T22:51:48.940Z,99.22
2022-08-30T22:54:17.678Z,99.19
2022-08-30T22:56:46.478Z,99.17
2022-08-30T22:59:15.453Z,99.30
2022-08-30T23:01:43.812Z,99.16
2022-08-30T23:04:12.939Z,99.04
2022-08-30T23:06:41.236Z,98.99
2022-08-30T23:09:15.066Z,99.14
2022-08-30T23:11:43.243Z,99.24
2022-08-30T23:14:11.484Z,99.28
2022-08-30T23:16:39.905Z,99.48
2022-08-30T23:19:08.290Z,99.71
2022-08-30T23:21:36.496Z,99.28
2022-08-30T23:24:23.697Z,99.54
2022-08-30T23:27:10.794Z,99.51
2022-08-30T23:29:59.517Z,99.65
2022-08-30T23:32:46.771Z,99.51
2022-08-30T23:35:33.780Z,99.34
2022-08-30T23:38:25.076Z,99.27
2022-08-30T23:41:12.296Z,99.22
2022-08-30T23:43:59.461Z,99.46
2022-08-30T23:46:46.318Z,99.61
2022-08-30T23:49:33.373Z,99.85
2022-08-30T23:52:20.727Z,99.86
2022-08-30T23:55:07.884Z,99.99
2022-08-30T23:57:55.181Z,100.00
